Time;durP1;ratioP1;P1;durP2;ratioP2;P2;SDS_P1;SDS_P2;PMS_P1;PMS_P2;Temp;Humidity;BMP_temperature;BMP_pressure;BME280_temperature;BME280_humidity;BME280_pressure;Samples;Min_cycle;Max_cycle;Signal;HPM_P1;HPM_P2
2023/06/17 00:01:27;;;;;;;16.20;8.40;;;;;;;16.42;74.16;96242.88;5030391;28;20657;-73
2023/06/17 00:03:54;;;;;;;16.35;8.68;;;;;;;16.40;73.37;96244.41;5032222;28;20037;-73
2023/06/17 00:06:20;;;;;;;16.85;9.02;;;;;;;16.38;73.39;96252.97;5031606;28;20046;-73
2023/06/17 00:08:47;;;;;;;15.93;8.75;;;;;;;16.33;73.05;96245.00;5031959;28;20045;-73
2023/06/17 00:11:13;;;;;;;21.58;9.82;;;;;;;16.25;73.22;96248.75;5031640;28;20052;-73
2023/06/17 00:13:41;;;;;;;17.67;8.50;;;;;;;16.20;73.02;96246.28;5031380;28;20042;-73
2023/06/17 00:16:09;;;;;;;17.80;9.65;;;;;;;16.23;73.19;96240.06;5030669;28;20045;-73
2023/06/17 00:18:36;;;;;;;13.38;8.15;;;;;;;16.26;72.94;96230.31;5024425;28;20396;-73
2023/06/17 00:21:02;;;;;;;17.55;8.95;;;;;;;16.05;73.43;96227.88;5031700;28;20132;-74
2023/06/17 00:23:29;;;;;;;18.40;9.32;;;;;;;16.07;73.15;96233.78;5023808;28;20053;-73
2023/06/17 00:25:55;;;;;;;14.18;8.35;;;;;;;16.12;73.36;96230.78;5023301;28;20045;-74
2023/06/17 00:28:22;;;;;;;17.67;9.45;;;;;;;16.05;73.52;96233.38;5023613;28;20049;-74
2023/06/17 00:30:50;;;;;;;22.52;9.25;;;;;;;15.98;73.41;96227.72;5032230;28;20050;-74
2023/06/17 00:33:16;;;;;;;16.65;9.80;;;;;;;15.93;73.63;96225.22;5025796;28;20073;-73
2023/06/17 00:35:43;;;;;;;17.08;9.27;;;;;;;15.75;74.28;96224.78;5024841;28;20052;-73
2023/06/17 00:38:09;;;;;;;25.40;10.20;;;;;;;15.67;74.23;96226.56;5020345;28;20429;-73
2023/06/17 00:40:36;;;;;;;14.48;8.57;;;;;;;15.78;74.02;96227.63;5032379;28;20042;-73
2023/06/17 00:43:02;;;;;;;13.65;8.55;;;;;;;15.71;74.08;96232.91;5033559;28;20414;-74
2023/06/17 00:45:29;;;;;;;14.93;8.48;;;;;;;15.73;74.13;96230.63;5041857;28;20401;-73
2023/06/17 00:47:59;;;;;;;16.25;9.25;;;;;;;15.72;74.04;96233.75;5025858;28;20040;-74
2023/06/17 00:50:28;;;;;;;18.67;9.38;;;;;;;15.72;74.15;96226.31;5032911;28;20066;-73
2023/06/17 00:52:58;;;;;;;15.90;8.55;;;;;;;15.78;74.10;96230.38;5042400;28;20065;-74
2023/06/17 00:55:25;;;;;;;19.17;9.98;;;;;;;15.67;74.24;96232.06;5019009;28;20068;-74
2023/06/17 00:57:53;;;;;;;15.68;8.27;;;;;;;15.75;74.16;96233.00;5023306;28;20045;-75
2023/06/17 01:00:19;;;;;;;20.00;9.40;;;;;;;15.80;74.57;96221.78;5034271;28;20045;-76
2023/06/17 01:02:46;;;;;;;16.42;9.00;;;;;;;15.80;74.37;96228.06;5033659;28;20038;-72
2023/06/17 01:05:16;;;;;;;21.80;9.95;;;;;;;15.82;74.70;96234.00;5031958;28;20393;-73
2023/06/17 01:08:09;;;;;;;18.02;9.90;;;;;;;15.73;74.62;96230.63;5042181;28;20499;-73
2023/06/17 01:10:43;;;;;;;17.10;8.73;;;;;;;15.57;75.02;96230.59;5025878;28;20060;-73
2023/06/17 01:13:13;;;;;;;18.10;9.35;;;;;;;15.54;74.81;96228.53;5040663;28;20052;-73
2023/06/17 01:15:39;;;;;;;13.48;8.38;;;;;;;15.66;74.80;96233.22;5028749;28;20444;-73
2023/06/17 01:18:07;;;;;;;23.30;10.65;;;;;;;15.54;74.62;96225.00;5031558;28;20041;-75
2023/06/17 01:20:35;;;;;;;16.48;9.00;;;;;;;15.62;74.68;96226.81;5023573;28;20448;-73
2023/06/17 01:23:05;;;;;;;15.88;9.70;;;;;;;15.56;74.74;96222.72;5031895;28;20149;-73
2023/06/17 01:25:33;;;;;;;19.48;8.88;;;;;;;15.59;74.28;96222.00;5031933;28;20045;-73
2023/06/17 01:28:00;;;;;;;17.27;9.98;;;;;;;15.37;74.85;96215.97;5022823;28;20048;-73
2023/06/17 01:30:29;;;;;;;18.45;9.70;;;;;;;15.39;74.99;96219.16;5031274;28;20048;-74
2023/06/17 01:32:57;;;;;;;18.77;9.15;;;;;;;15.32;75.39;96215.44;5031390;28;20065;-73
2023/06/17 01:35:28;;;;;;;18.73;9.20;;;;;;;15.23;75.47;96221.06;5031103;28;20038;-73
2023/06/17 01:38:00;;;;;;;15.55;8.27;;;;;;;15.32;75.44;96218.97;5031941;28;20045;-73
2023/06/17 01:40:29;;;;;;;13.85;8.18;;;;;;;15.35;75.70;96223.75;5030541;28;20060;-73
2023/06/17 01:43:00;;;;;;;20.10;9.30;;;;;;;15.42;75.45;96227.84;5030972;28;20041;-73
2023/06/17 01:45:27;;;;;;;17.80;8.43;;;;;;;15.40;75.26;96230.94;5030373;28;20049;-73
2023/06/17 01:47:54;;;;;;;17.60;9.52;;;;;;;15.38;75.20;96234.00;5030238;28;20049;-73
2023/06/17 01:50:20;;;;;;;18.92;8.68;;;;;;;15.33;75.10;96231.53;5030283;28;20046;-73
2023/06/17 01:52:47;;;;;;;16.63;8.50;;;;;;;15.32;75.18;96229.16;5030797;28;20045;-73
2023/06/17 01:55:14;;;;;;;18.38;9.05;;;;;;;15.26;75.37;96225.88;5029600;28;20049;-73
2023/06/17 01:57:41;;;;;;;16.67;8.38;;;;;;;15.25;75.71;96228.97;5030194;28;20046;-73
2023/06/17 02:00:12;;;;;;;18.02;9.48;;;;;;;15.14;75.96;96229.47;5029275;28;20056;-73
2023/06/17 02:02:39;;;;;;;19.23;9.32;;;;;;;15.12;75.90;96230.97;5029906;28;20128;-73
2023/06/17 02:05:07;;;;;;;14.98;8.65;;;;;;;15.04;76.23;96226.44;5029427;28;20060;-73
2023/06/17 02:07:34;;;;;;;20.45;10.65;;;;;;;14.97;76.61;96228.97;5029814;28;20468;-73
2023/06/17 02:10:00;;;;;;;19.65;9.52;;;;;;;14.93;76.45;96223.41;5029292;28;20049;-73
2023/06/17 02:12:27;;;;;;;21.45;9.75;;;;;;;14.86;76.67;96228.66;5030073;28;20057;-74
2023/06/17 02:14:53;;;;;;;20.55;9.10;;;;;;;14.95;76.43;96228.53;5029445;28;20643;-73
2023/06/17 02:17:23;;;;;;;17.02;8.82;;;;;;;14.90;76.19;96228.78;5029327;28;20049;-73
2023/06/17 02:19:49;;;;;;;16.42;9.07;;;;;;;14.91;75.91;96230.38;5029418;28;20033;-73
2023/06/17 02:22:16;;;;;;;18.52;9.23;;;;;;;14.91;76.12;96220.19;5028758;28;20433;-73
2023/06/17 02:24:43;;;;;;;18.38;9.15;;;;;;;14.85;76.02;96230.63;5024315;28;20045;-73
2023/06/17 02:27:09;;;;;;;15.52;8.50;;;;;;;14.85;75.67;96233.34;5029154;28;20632;-73
2023/06/17 02:29:36;;;;;;;19.50;9.02;;;;;;;14.79;75.65;96226.53;5029621;28;20064;-74
2023/06/17 02:32:02;;;;;;;14.27;8.60;;;;;;;14.81;75.89;96224.22;5029417;28;20045;-75
2023/06/17 02:34:33;;;;;;;16.98;9.20;;;;;;;14.72;76.02;96225.50;5029803;28;20391;-73
2023/06/17 02:36:59;;;;;;;18.17;9.15;;;;;;;14.64;75.74;96220.97;5029949;28;20408;-74
2023/06/17 02:39:26;;;;;;;18.38;9.07;;;;;;;14.67;75.79;96226.56;5028885;28;20055;-73
2023/06/17 02:41:52;;;;;;;16.67;8.60;;;;;;;14.69;75.83;96224.28;5031636;28;20046;-74
2023/06/17 02:44:19;;;;;;;13.32;8.38;;;;;;;14.69;76.23;96224.28;5029667;28;20496;-74
2023/06/17 02:46:45;;;;;;;19.67;8.48;;;;;;;14.69;76.07;96223.47;5030117;28;20056;-73
2023/06/17 02:49:13;;;;;;;15.98;8.32;;;;;;;14.66;75.65;96230.44;5029564;28;20055;-74
2023/06/17 02:51:41;;;;;;;17.88;8.45;;;;;;;14.64;75.35;96238.22;5021172;28;20056;-74
2023/06/17 02:54:08;;;;;;;14.27;8.20;;;;;;;14.62;75.89;96232.31;5014787;28;20065;-74
2023/06/17 02:56:34;;;;;;;13.52;8.32;;;;;;;14.58;75.66;96234.94;5012148;28;20038;-73
2023/06/17 02:59:02;;;;;;;17.77;9.00;;;;;;;14.48;75.31;96234.59;5031472;28;20128;-73
2023/06/17 03:01:30;;;;;;;16.10;8.23;;;;;;;14.45;75.00;96233.31;5033238;28;20065;-74
2023/06/17 03:04:01;;;;;;;13.65;7.53;;;;;;;14.43;74.91;96241.09;5033256;28;20048;-74
2023/06/17 03:06:31;;;;;;;17.05;8.35;;;;;;;14.39;74.59;96236.66;5035599;28;20072;-73
2023/06/17 03:09:00;;;;;;;14.93;8.00;;;;;;;14.31;74.73;96233.69;5035532;28;20132;-74
2023/06/17 03:11:28;;;;;;;14.90;7.55;;;;;;;14.26;74.78;96231.19;5034712;28;20045;-74
2023/06/17 03:13:55;;;;;;;17.83;8.73;;;;;;;14.27;75.02;96230.03;5035339;28;20053;-74
2023/06/17 03:16:23;;;;;;;13.98;8.15;;;;;;;14.26;74.94;96233.94;5034384;28;20712;-73
2023/06/17 03:18:49;;;;;;;15.45;8.00;;;;;;;14.28;75.25;96228.91;5035919;28;20069;-74
2023/06/17 03:21:16;;;;;;;17.35;8.45;;;;;;;14.29;75.12;96227.75;5035675;28;20050;-74
2023/06/17 03:23:43;;;;;;;18.77;8.57;;;;;;;14.32;74.92;96229.03;5033419;28;20056;-73
2023/06/17 03:26:11;;;;;;;14.93;8.13;;;;;;;14.30;74.46;96234.03;5036945;28;20056;-74
2023/06/17 03:28:38;;;;;;;15.68;7.93;;;;;;;14.34;74.35;96235.72;5037000;28;20045;-73
2023/06/17 03:31:05;;;;;;;17.42;8.00;;;;;;;14.38;74.36;96229.56;5036576;28;20054;-73
2023/06/17 03:33:32;;;;;;;16.00;8.35;;;;;;;14.36;74.18;96233.47;5036783;28;20049;-74
2023/06/17 03:35:58;;;;;;;16.05;7.88;;;;;;;14.29;73.80;96238.72;5036698;28;20056;-74
2023/06/17 03:38:25;;;;;;;16.85;7.93;;;;;;;14.21;73.24;96239.66;5027273;28;20060;-74
2023/06/17 03:40:51;;;;;;;16.85;7.97;;;;;;;14.18;73.60;96236.78;5032821;28;20057;-74
2023/06/17 03:43:19;;;;;;;18.20;7.78;;;;;;;14.19;73.66;96239.16;5032244;28;20053;-74
2023/06/17 03:45:46;;;;;;;19.45;7.88;;;;;;;14.23;74.15;96236.56;5032831;28;20413;-73
2023/06/17 03:48:12;;;;;;;14.60;8.00;;;;;;;14.23;74.06;96247.50;5032358;28;20068;-74
2023/06/17 03:50:39;;;;;;;16.95;7.95;;;;;;;14.18;74.18;96239.53;5024578;28;20037;-73
2023/06/17 03:53:05;;;;;;;15.43;7.47;;;;;;;14.17;73.87;96243.41;5031072;28;20042;-73
2023/06/17 03:55:32;;;;;;;19.38;8.25;;;;;;;14.13;74.16;96242.50;5032269;28;20513;-74
2023/06/17 03:58:00;;;;;;;18.90;7.75;;;;;;;14.13;74.17;96239.75;5031972;28;20460;-73
2023/06/17 04:00:28;;;;;;;15.40;7.40;;;;;;;14.14;74.22;96247.63;5013963;28;20042;-74
2023/06/17 04:02:56;;;;;;;18.17;7.50;;;;;;;14.13;74.25;96245.22;5017880;28;20045;-74
2023/06/17 04:05:23;;;;;;;19.23;8.25;;;;;;;14.09;74.18;96245.13;5031581;28;20041;-73
2023/06/17 04:07:50;;;;;;;15.35;7.72;;;;;;;14.03;73.99;96252.75;5032337;28;20049;-73
2023/06/17 04:10:16;;;;;;;13.63;7.25;;;;;;;14.03;73.83;96243.75;5030218;28;20037;-74
2023/06/17 04:12:43;;;;;;;20.02;8.57;;;;;;;13.94;74.00;96245.78;5024101;28;20045;-73
2023/06/17 04:15:10;;;;;;;17.52;8.52;;;;;;;13.88;74.82;96245.22;5038675;28;20045;-73
2023/06/17 04:17:38;;;;;;;18.02;8.52;;;;;;;13.93;74.70;96241.47;5020796;28;20674;-73
2023/06/17 04:20:10;;;;;;;22.63;9.00;;;;;;;13.92;74.83;96245.34;5027623;28;20057;-74
2023/06/17 04:22:37;;;;;;;15.40;8.40;;;;;;;13.87;75.10;96237.38;5037744;28;20041;-73
2023/06/17 04:25:04;;;;;;;15.68;7.80;;;;;;;13.93;75.04;96233.25;5010653;28;20410;-74
2023/06/17 04:27:30;;;;;;;17.58;7.90;;;;;;;13.77;75.30;96233.94;5029858;28;20136;-74
2023/06/17 04:29:57;;;;;;;19.90;8.48;;;;;;;13.63;76.16;96228.00;5031033;28;20044;-75
2023/06/17 04:32:24;;;;;;;17.13;8.27;;;;;;;13.61;76.49;96230.28;5031441;28;20493;-74
2023/06/17 04:34:52;;;;;;;18.85;8.13;;;;;;;13.51;77.01;96236.19;5031444;28;20404;-73
2023/06/17 04:37:18;;;;;;;15.70;7.95;;;;;;;13.35;77.77;96237.97;5031230;28;20045;-73
2023/06/17 04:39:45;;;;;;;19.23;8.52;;;;;;;13.29;78.97;96240.94;5023672;28;20045;-74
2023/06/17 04:42:14;;;;;;;20.80;9.00;;;;;;;13.19;79.71;96241.31;5030514;28;20115;-73
2023/06/17 04:44:41;;;;;;;19.90;8.10;;;;;;;13.26;79.78;96235.34;5030906;28;20115;-74
2023/06/17 04:47:10;;;;;;;18.05;8.63;;;;;;;13.28;80.07;96239.34;5030791;28;20065;-74
2023/06/17 04:49:38;;;;;;;20.63;8.73;;;;;;;13.38;80.79;96240.84;5023125;28;20489;-73
2023/06/17 04:52:07;;;;;;;17.98;8.68;;;;;;;13.47;80.21;96232.56;5030961;28;20115;-74
2023/06/17 04:54:34;;;;;;;21.20;9.25;;;;;;;13.53;80.64;96233.94;5023033;28;20065;-73
2023/06/17 04:57:00;;;;;;;20.80;9.23;;;;;;;13.69;80.41;96242.28;5031242;28;20060;-73
2023/06/17 04:59:27;;;;;;;16.95;8.50;;;;;;;13.73;80.52;96238.50;5029965;28;20041;-74
2023/06/17 05:01:53;;;;;;;19.98;8.90;;;;;;;13.87;79.97;96237.38;5030750;28;20049;-73
2023/06/17 05:04:20;;;;;;;20.52;9.77;;;;;;;13.88;80.08;96238.97;5030356;28;20051;-73
2023/06/17 05:06:47;;;;;;;19.42;9.50;;;;;;;13.94;80.01;96238.41;5023220;28;20528;-74
2023/06/17 05:09:15;;;;;;;18.92;9.60;;;;;;;13.96;79.93;96240.78;5030211;28;20045;-74
2023/06/17 05:11:42;;;;;;;18.63;9.35;;;;;;;14.16;79.17;96250.81;5030906;28;20056;-73
2023/06/17 05:14:08;;;;;;;16.98;8.70;;;;;;;14.10;78.66;96253.00;5030498;28;20103;-73
2023/06/17 05:16:35;;;;;;;18.55;8.82;;;;;;;14.26;78.34;96253.09;5030133;28;20045;-74
2023/06/17 05:19:02;;;;;;;17.88;9.60;;;;;;;14.33;78.91;96252.53;5035536;28;20400;-75
2023/06/17 05:21:28;;;;;;;17.85;9.18;;;;;;;14.44;78.08;96252.84;5023673;28;20061;-73
2023/06/17 05:23:54;;;;;;;17.52;9.38;;;;;;;14.28;78.03;96258.22;5030936;28;20068;-73
2023/06/17 05:26:22;;;;;;;19.83;9.32;;;;;;;14.31;78.62;96257.56;5030082;28;20052;-73
2023/06/17 05:28:49;;;;;;;15.20;8.48;;;;;;;14.46;77.52;96258.75;5027596;28;20057;-73
2023/06/17 05:31:16;;;;;;;15.88;9.30;;;;;;;14.35;77.75;96259.25;5030074;28;20053;-73
2023/06/17 05:33:44;;;;;;;22.90;10.23;;;;;;;14.35;78.17;96253.78;5030734;28;20058;-73
2023/06/17 05:36:10;;;;;;;19.85;9.73;;;;;;;14.33;77.78;96255.25;5030041;28;20099;-73
2023/06/17 05:38:37;;;;;;;22.95;9.23;;;;;;;14.45;78.33;96263.44;5038814;28;20060;-73
2023/06/17 05:41:03;;;;;;;20.73;9.85;;;;;;;14.46;78.18;96256.03;5029168;28;20398;-73
2023/06/17 05:43:31;;;;;;;17.38;8.68;;;;;;;14.68;77.44;96265.75;5030193;28;20508;-74
2023/06/17 05:45:58;;;;;;;17.73;9.93;;;;;;;14.67;76.59;96258.63;5030560;28;20045;-73
2023/06/17 05:48:24;;;;;;;20.67;10.15;;;;;;;14.71;76.55;96249.38;5037598;28;20045;-73
2023/06/17 05:50:51;;;;;;;19.33;9.88;;;;;;;14.77;76.81;96258.16;5010184;28;20390;-73
2023/06/17 05:53:17;;;;;;;18.40;9.40;;;;;;;14.98;76.66;96256.06;5026876;28;20046;-73
2023/06/17 05:55:44;;;;;;;21.80;10.07;;;;;;;14.98;75.18;96257.97;5030112;28;20496;-73
2023/06/17 05:58:10;;;;;;;25.92;10.25;;;;;;;15.12;74.41;96264.66;5029055;28;20049;-74
2023/06/17 06:00:38;;;;;;;19.20;9.30;;;;;;;15.14;74.23;96265.13;5029931;28;20053;-72
2023/06/17 06:03:05;;;;;;;22.85;9.60;;;;;;;15.20;72.93;96262.94;5029194;28;20497;-73
2023/06/17 06:05:31;;;;;;;20.05;8.77;;;;;;;15.43;73.22;96256.88;5029935;28;20065;-73
2023/06/17 06:07:58;;;;;;;21.23;9.30;;;;;;;15.58;72.58;96264.31;5030061;28;20545;-73
2023/06/17 06:10:27;;;;;;;22.10;9.00;;;;;;;15.53;71.35;96259.88;5029251;28;20044;-73
2023/06/17 06:12:53;;;;;;;21.38;9.10;;;;;;;15.58;71.69;96261.59;5022280;28;20041;-73
2023/06/17 06:15:20;;;;;;;18.02;8.75;;;;;;;15.67;70.50;96262.25;5022585;28;20513;-73
2023/06/17 06:17:48;;;;;;;20.50;9.02;;;;;;;15.89;70.45;96264.38;5029691;28;20046;-73
2023/06/17 06:20:14;;;;;;;19.88;8.90;;;;;;;15.93;69.15;96269.97;5029197;28;20068;-73
2023/06/17 06:22:41;;;;;;;18.25;8.63;;;;;;;16.11;69.23;96264.91;5029140;28;20041;-73
2023/06/17 06:25:08;;;;;;;20.60;9.23;;;;;;;16.20;68.72;96268.25;5029032;28;20076;-73
2023/06/17 06:27:35;;;;;;;34.22;11.38;;;;;;;16.28;67.68;96275.50;5029487;28;20562;-73
2023/06/17 06:30:01;;;;;;;24.00;10.00;;;;;;;16.35;67.85;96275.69;5017458;28;20065;-73
2023/06/17 06:32:28;;;;;;;29.00;11.20;;;;;;;16.52;67.14;96273.72;5021331;28;20056;-72
2023/06/17 06:34:55;;;;;;;21.75;9.85;;;;;;;16.58;68.37;96272.28;5026151;28;20045;-73
2023/06/17 06:37:22;;;;;;;21.15;9.85;;;;;;;16.73;67.29;96279.72;5022707;28;20060;-73
2023/06/17 06:39:48;;;;;;;20.13;9.48;;;;;;;16.97;66.91;96283.38;5019595;28;20531;-73
2023/06/17 06:42:15;;;;;;;19.85;8.75;;;;;;;17.07;65.73;96277.28;5023927;28;20049;-72
2023/06/17 06:44:41;;;;;;;24.52;9.90;;;;;;;17.09;65.57;96277.72;5014152;28;20046;-72
2023/06/17 06:47:08;;;;;;;24.48;9.75;;;;;;;17.21;65.09;96281.09;5014045;28;20046;-73
2023/06/17 06:49:34;;;;;;;22.08;9.50;;;;;;;17.22;64.93;96284.66;5015560;28;20042;-72
2023/06/17 06:52:02;;;;;;;18.60;9.18;;;;;;;17.38;63.82;96288.16;5014672;28;20056;-72
2023/06/17 06:54:29;;;;;;;22.88;9.07;;;;;;;17.41;63.24;96292.91;5013395;28;20073;-72
2023/06/17 06:56:55;;;;;;;21.05;9.68;;;;;;;17.45;63.84;96288.28;5015179;28;20050;-72
2023/06/17 06:59:22;;;;;;;18.63;9.18;;;;;;;17.64;64.86;96289.38;5015133;28;20049;-73
2023/06/17 07:01:48;;;;;;;20.52;9.18;;;;;;;17.68;62.46;96288.31;5026237;28;20041;-73
2023/06/17 07:04:15;;;;;;;32.13;9.63;;;;;;;17.87;62.90;96287.50;5026295;28;20621;-73
2023/06/17 07:06:41;;;;;;;26.70;10.02;;;;;;;18.04;62.09;96297.22;5026009;28;20057;-73
2023/06/17 07:09:09;;;;;;;19.05;8.13;;;;;;;18.21;61.86;96290.41;5025716;28;20088;-73
2023/06/17 07:11:38;;;;;;;16.63;7.72;;;;;;;18.24;60.65;96297.97;5025552;28;20048;-73
2023/06/17 07:14:04;;;;;;;21.33;8.20;;;;;;;18.37;60.94;96293.81;5025904;28;20525;-74
2023/06/17 07:16:31;;;;;;;16.73;7.90;;;;;;;18.48;58.25;96299.53;5017757;28;20053;-73
2023/06/17 07:18:57;;;;;;;21.25;7.72;;;;;;;18.67;59.23;96293.09;5009657;28;20056;-73
2023/06/17 07:21:24;;;;;;;21.38;7.68;;;;;;;18.67;57.76;96290.34;5025058;28;20056;-73
2023/06/17 07:23:51;;;;;;;20.05;8.27;;;;;;;18.83;58.58;96296.50;5025912;28;20068;-73
2023/06/17 07:26:19;;;;;;;19.45;7.15;;;;;;;18.96;58.54;96295.13;5025610;28;20131;-73
2023/06/17 07:28:46;;;;;;;21.05;7.75;;;;;;;19.14;58.03;96292.59;5023589;28;20073;-73
2023/06/17 07:31:13;;;;;;;17.08;6.47;;;;;;;19.20;57.24;96290.31;5019995;28;20061;-73
2023/06/17 07:33:40;;;;;;;16.10;7.05;;;;;;;19.46;57.33;96281.94;5025777;28;20664;-73
2023/06/17 07:36:06;;;;;;;18.75;8.00;;;;;;;19.62;57.45;96283.72;5026112;28;20054;-74
2023/06/17 07:38:33;;;;;;;17.98;7.38;;;;;;;19.68;54.86;96284.97;5026117;28;20049;-73
2023/06/17 07:41:00;;;;;;;15.77;7.03;;;;;;;19.68;54.12;96283.03;5025658;28;20049;-73
2023/06/17 07:43:28;;;;;;;16.38;6.40;;;;;;;19.91;55.18;96280.06;5025884;28;20795;-74
2023/06/17 07:45:54;;;;;;;21.90;6.90;;;;;;;20.17;54.51;96281.09;5028733;28;20544;-74
2023/06/17 07:48:21;;;;;;;16.00;6.72;;;;;;;20.32;51.64;96288.34;5029042;28;20645;-73
2023/06/17 07:50:47;;;;;;;17.67;7.68;;;;;;;20.18;51.55;96282.69;5021046;28;20060;-73
2023/06/17 07:53:15;;;;;;;19.10;7.25;;;;;;;20.23;53.87;96285.09;5029283;28;20525;-73
2023/06/17 07:55:41;;;;;;;18.00;7.30;;;;;;;20.33;50.66;96282.41;5026575;28;20087;-72
2023/06/17 07:58:08;;;;;;;15.57;6.57;;;;;;;20.63;51.45;96292.56;5028641;28;20096;-73
2023/06/17 08:00:36;;;;;;;13.73;6.38;;;;;;;20.72;48.47;96289.44;5029176;28;20508;-73
2023/06/17 08:03:03;;;;;;;19.88;7.32;;;;;;;20.68;48.50;96283.91;5027708;28;20053;-73
2023/06/17 08:05:29;;;;;;;13.55;5.75;;;;;;;20.75;49.73;96283.13;5032522;28;20049;-73
2023/06/17 08:07:56;;;;;;;13.20;5.70;;;;;;;20.89;47.80;96282.44;5020646;28;20045;-72
2023/06/17 08:10:22;;;;;;;15.23;6.45;;;;;;;21.14;48.73;96285.31;5028120;28;20056;-73
2023/06/17 08:12:49;;;;;;;15.23;6.07;;;;;;;21.45;48.46;96290.22;5029076;28;20680;-72
2023/06/17 08:15:16;;;;;;;12.63;5.63;;;;;;;21.61;48.68;96287.94;5028612;28;20076;-75
2023/06/17 08:17:44;;;;;;;13.05;6.03;;;;;;;21.84;48.59;96281.25;5029336;28;20539;-73
2023/06/17 08:20:13;;;;;;;11.77;5.60;;;;;;;21.87;45.25;96284.03;5027907;28;20759;-74
2023/06/17 08:22:40;;;;;;;12.98;6.60;;;;;;;21.97;46.72;96273.34;5029031;28;20053;-74
2023/06/17 08:25:07;;;;;;;14.23;5.97;;;;;;;22.10;45.30;96283.69;5028252;28;20045;-75
2023/06/17 08:27:33;;;;;;;14.18;6.00;;;;;;;22.29;44.37;96276.97;5028260;28;20049;-74
2023/06/17 08:30:00;;;;;;;13.60;5.72;;;;;;;22.37;43.30;96269.44;5028642;28;20056;-74
2023/06/17 08:32:27;;;;;;;13.45;6.30;;;;;;;22.52;45.18;96273.78;5028457;28;20049;-75
2023/06/17 08:34:55;;;;;;;18.88;6.50;;;;;;;22.84;45.51;96275.72;5023223;28;20649;-75
2023/06/17 08:37:21;;;;;;;17.05;6.18;;;;;;;23.03;43.72;96268.97;5025035;28;20057;-74
2023/06/17 08:39:48;;;;;;;18.80;6.45;;;;;;;23.25;43.31;96266.91;5024541;28;20534;-74
2023/06/17 08:42:14;;;;;;;12.15;5.20;;;;;;;23.31;41.43;96262.50;5029978;28;20734;-74
2023/06/17 08:44:44;;;;;;;22.23;6.85;;;;;;;23.37;42.44;96252.56;5025870;28;20049;-75
2023/06/17 08:47:15;;;;;;;19.35;6.72;;;;;;;23.53;42.35;96258.44;5028251;28;20052;-75
2023/06/17 08:49:44;;;;;;;20.02;6.50;;;;;;;23.77;39.25;96253.19;5027746;28;20053;-75
2023/06/17 08:52:13;;;;;;;16.23;6.10;;;;;;;23.87;38.22;96252.31;5027939;28;20049;-74
2023/06/17 08:54:41;;;;;;;17.77;6.28;;;;;;;23.99;39.59;96257.41;5026371;28;20123;-75
2023/06/17 08:57:12;;;;;;;17.65;6.07;;;;;;;24.06;37.88;96254.53;5022402;28;20128;-75
2023/06/17 08:59:38;;;;;;;19.08;6.20;;;;;;;24.09;38.34;96262.09;5026971;28;20045;-75
2023/06/17 09:02:05;;;;;;;17.05;6.22;;;;;;;24.25;35.99;96258.00;5027245;28;20563;-76
2023/06/17 09:04:32;;;;;;;19.63;6.00;;;;;;;24.24;36.33;96254.44;5027791;28;20049;-74
2023/06/17 09:06:59;;;;;;;18.52;6.43;;;;;;;24.20;38.12;96243.31;5026669;28;20053;-75
2023/06/17 09:09:27;;;;;;;19.13;5.95;;;;;;;24.35;37.93;96240.44;5027400;28;20049;-74
2023/06/17 09:11:54;;;;;;;20.45;6.60;;;;;;;24.52;34.76;96247.84;5028190;28;20456;-76
2023/06/17 09:14:21;;;;;;;16.45;6.15;;;;;;;24.54;33.82;96251.03;5027385;28;20049;-75
2023/06/17 09:16:50;;;;;;;16.00;6.03;;;;;;;24.50;34.51;96239.13;5027664;28;20095;-75
2023/06/17 09:19:16;;;;;;;19.15;6.38;;;;;;;24.51;36.38;96240.72;5022437;28;20048;-75
2023/06/17 09:21:47;;;;;;;17.15;6.03;;;;;;;24.67;36.92;96238.16;5025453;28;20409;-74
2023/06/17 09:24:13;;;;;;;18.85;6.80;;;;;;;24.75;34.63;96238.09;5027345;28;20060;-75
2023/06/17 09:26:42;;;;;;;14.27;5.53;;;;;;;24.59;35.22;96242.22;5027545;28;20052;-75
2023/06/17 09:29:11;;;;;;;21.80;6.40;;;;;;;24.26;35.76;96235.31;5025804;28;20501;-75
2023/06/17 09:31:47;;;;;;;16.75;6.25;;;;;;;23.92;35.29;96238.78;5027783;28;20053;-74
2023/06/17 09:34:14;;;;;;;20.17;6.95;;;;;;;23.79;33.11;96245.22;5027199;28;20057;-75
2023/06/17 09:36:40;;;;;;;18.42;6.45;;;;;;;23.48;34.70;96236.63;5027822;28;20041;-75
2023/06/17 09:39:09;;;;;;;14.30;6.18;;;;;;;23.41;35.13;96231.09;5027095;28;20049;-74
2023/06/17 09:41:36;;;;;;;19.77;6.28;;;;;;;23.29;35.89;96231.56;5026533;28;20056;-75
2023/06/17 09:44:05;;;;;;;17.45;6.03;;;;;;;23.09;34.13;96231.25;5026890;28;20045;-75
2023/06/17 09:46:38;;;;;;;17.52;6.55;;;;;;;23.36;35.26;96228.75;5027487;28;20046;-75
2023/06/17 09:49:09;;;;;;;18.05;6.00;;;;;;;23.65;34.91;96219.09;5018902;28;20057;-74
2023/06/17 09:51:37;;;;;;;19.23;6.32;;;;;;;23.29;35.42;96220.47;5026277;28;20049;-74
2023/06/17 09:54:04;;;;;;;22.58;6.35;;;;;;;23.19;34.28;96224.88;5018797;28;20046;-75
2023/06/17 09:56:33;;;;;;;16.08;5.57;;;;;;;23.49;34.99;96227.09;5027070;28;20041;-74
2023/06/17 09:58:59;;;;;;;15.52;5.50;;;;;;;23.79;35.07;96220.19;5026181;28;20061;-74
2023/06/17 10:01:30;;;;;;;13.32;5.43;;;;;;;23.94;35.75;96221.66;5026576;28;20646;-74
2023/06/17 10:03:57;;;;;;;22.33;6.95;;;;;;;24.25;35.81;96221.81;5026655;28;20042;-74
2023/06/17 10:06:26;;;;;;;18.73;6.35;;;;;;;24.44;33.70;96224.88;5026570;28;20512;-75
2023/06/17 10:08:53;;;;;;;23.42;6.88;;;;;;;24.60;34.74;96232.66;5026668;28;20156;-74
2023/06/17 10:11:21;;;;;;;19.58;6.10;;;;;;;24.74;33.20;96226.16;5026153;28;20049;-74
2023/06/17 10:13:54;;;;;;;19.33;5.93;;;;;;;24.28;32.35;96221.03;5026745;28;20049;-74
2023/06/17 10:16:23;;;;;;;19.98;6.82;;;;;;;24.42;32.54;96215.34;5025380;28;20041;-74
2023/06/17 10:18:54;;;;;;;24.92;6.95;;;;;;;24.62;33.41;96213.53;5025013;28;20469;-75
2023/06/17 10:21:24;;;;;;;14.70;5.45;;;;;;;24.80;34.67;96215.38;5026055;28;20048;-75
2023/06/17 10:23:53;;;;;;;20.15;6.45;;;;;;;25.12;33.06;96217.81;5026637;28;20520;-74
2023/06/17 10:26:20;;;;;;;14.88;6.13;;;;;;;24.78;30.23;96220.56;5030743;28;20047;-74
2023/06/17 10:28:59;;;;;;;18.85;7.05;;;;;;;24.35;31.71;96209.81;5024772;28;20141;-74
2023/06/17 10:31:27;;;;;;;18.40;6.28;;;;;;;24.47;33.03;96200.97;5024712;28;20041;-74
2023/06/17 10:33:57;;;;;;;19.77;6.82;;;;;;;24.50;33.44;96210.50;5019882;28;20049;-74
2023/06/17 10:36:25;;;;;;;18.08;6.20;;;;;;;24.76;32.82;96200.69;5025339;28;20045;-74
2023/06/17 10:38:56;;;;;;;17.73;6.75;;;;;;;25.03;31.68;96198.78;5026099;28;20045;-74
2023/06/17 10:41:44;;;;;;;17.80;6.10;;;;;;;25.21;31.73;96204.16;5020624;28;20050;-74
2023/06/17 10:44:41;;;;;;;14.73;5.30;;;;;;;25.31;31.78;96194.06;5015136;28;20045;-75
2023/06/17 10:47:17;;;;;;;16.38;6.25;;;;;;;24.80;30.28;96190.31;5017096;28;20425;-74
2023/06/17 10:49:47;;;;;;;14.80;5.80;;;;;;;25.09;32.01;96197.13;5025239;28;20424;-74
2023/06/17 10:52:14;;;;;;;18.08;6.22;;;;;;;25.03;30.19;96186.84;5023964;28;20440;-74
2023/06/17 10:54:45;;;;;;;20.60;6.60;;;;;;;24.92;32.07;96184.19;5025387;28;20068;-75
2023/06/17 10:57:12;;;;;;;24.02;7.05;;;;;;;25.03;31.13;96187.63;5009063;28;20100;-74
2023/06/17 10:59:38;;;;;;;15.60;5.60;;;;;;;25.32;30.97;96190.91;5025765;28;20484;-74
2023/06/17 11:02:07;;;;;;;20.50;6.68;;;;;;;25.52;30.44;96188.22;5025216;28;20061;-74
2023/06/17 11:04:35;;;;;;;12.27;5.43;;;;;;;25.16;29.12;96177.56;5023079;28;20041;-74
2023/06/17 11:07:04;;;;;;;19.55;6.45;;;;;;;25.02;30.48;96174.91;5023482;28;20057;-76
2023/06/17 11:09:33;;;;;;;19.30;6.00;;;;;;;24.79;31.91;96163.66;5020684;28;20049;-75
2023/06/17 11:12:02;;;;;;;18.42;6.70;;;;;;;25.03;32.26;96176.50;5022942;28;20777;-75
2023/06/17 11:14:30;;;;;;;17.98;6.40;;;;;;;25.16;31.14;96174.78;5019729;28;20500;-76
2023/06/17 11:16:57;;;;;;;20.95;7.10;;;;;;;25.36;31.47;96171.31;5026056;28;20049;-75
2023/06/17 11:19:23;;;;;;;25.67;8.55;;;;;;;25.52;31.25;96168.69;5026516;28;20060;-75
2023/06/17 11:21:50;;;;;;;15.75;5.90;;;;;;;25.38;30.59;96172.50;5029804;28;20045;-75
2023/06/17 11:24:18;;;;;;;17.00;6.40;;;;;;;25.03;31.23;96156.22;5029042;28;20065;-75
2023/06/17 11:26:45;;;;;;;16.15;6.03;;;;;;;25.14;30.11;96165.25;5028848;28;20050;-75